Paulina, Oregon
Current Conditions -  °F | °C
As of 7:55 AM on Saturday 20 Dec 2014 (Local Time) from KS39 Reporting Station
Overcast Overcast  
Wind Chill:   Ceiling: 3600
Heat Index:   Visibility: 10mi
Dew Point:   Wind: 8mph
Humidity: 76%   Direction: 170°S
Pressure: 29.83"   Gusts: NA
Location:  44.13°N, 119.97°W
Report Text: KS39 201555Z AUTO 17007KT 10SM BKN036 BKN042 OVC050 06/02 A2983 RMK AO2
Loading
Personal Weather Stations






























Interactive Weather Map New forecast layout! Learn more

10-Day Weather Forecast

Advertisements
Track Severe Weather on mobile